Time;durP1;ratioP1;P1;durP2;ratioP2;P2;SDS_P1;SDS_P2;PMS_P1;PMS_P2;Temp;Humidity;BMP_temperature;BMP_pressure;BME280_temperature;BME280_humidity;BME280_pressure;Samples;Min_cycle;Max_cycle;Signal;HPM_P1;HPM_P2
2022/07/01 00:02:09;;;;;;;6.90;2.10;;;;;;;;;;5093678;28;20470;-71
2022/07/01 00:04:36;;;;;;;2.07;1.60;;;;;;;;;;5093678;28;20486;-71
2022/07/01 00:07:03;;;;;;;5.60;2.13;;;;;;;;;;5093958;28;20518;-71
2022/07/01 00:09:30;;;;;;;4.13;2.40;;;;;;;;;;5093579;28;20454;-71
2022/07/01 00:11:58;;;;;;;4.63;2.50;;;;;;;;;;5093716;28;20987;-71
2022/07/01 00:14:26;;;;;;;3.67;1.97;;;;;;;;;;5093326;28;20447;-71
2022/07/01 00:16:53;;;;;;;3.83;2.17;;;;;;;;;;5093415;28;20451;-71
2022/07/01 00:19:20;;;;;;;3.43;1.80;;;;;;;;;;5093366;28;20451;-71
2022/07/01 00:21:47;;;;;;;2.80;2.10;;;;;;;;;;5093285;28;20470;-71
2022/07/01 00:24:15;;;;;;;3.30;1.73;;;;;;;;;;5092776;28;20466;-71
2022/07/01 00:26:42;;;;;;;3.67;2.17;;;;;;;;;;5093405;28;20457;-71
2022/07/01 00:29:09;;;;;;;4.20;2.23;;;;;;;;;;5093233;28;20821;-71
2022/07/01 00:31:38;;;;;;;1.90;1.67;;;;;;;;;;5092966;28;20478;-71
2022/07/01 00:34:05;;;;;;;3.47;2.03;;;;;;;;;;5093025;28;20447;-71
2022/07/01 00:36:32;;;;;;;2.50;2.00;;;;;;;;;;5093214;28;20447;-71
2022/07/01 00:38:59;;;;;;;2.43;2.23;;;;;;;;;;5093199;28;20932;-71
2022/07/01 00:41:26;;;;;;;5.33;1.90;;;;;;;;;;5092934;28;20474;-71
2022/07/01 00:43:54;;;;;;;2.70;2.30;;;;;;;;;;5092990;28;20450;-71
2022/07/01 00:46:22;;;;;;;2.60;2.13;;;;;;;;;;5092823;28;20489;-71
2022/07/01 00:48:50;;;;;;;4.07;2.20;;;;;;;;;;5092963;28;20458;-71
2022/07/01 00:51:19;;;;;;;4.03;3.00;;;;;;;;;;5092865;28;20477;-71
2022/07/01 00:53:46;;;;;;;3.83;2.70;;;;;;;;;;5092750;28;20801;-71
2022/07/01 00:56:14;;;;;;;6.80;2.13;;;;;;;;;;5093208;28;20820;-71
2022/07/01 00:58:41;;;;;;;3.07;2.50;;;;;;;;;;5093170;28;20948;-71
2022/07/01 01:01:08;;;;;;;3.33;2.50;;;;;;;;;;5092879;28;20474;-71
2022/07/01 01:03:35;;;;;;;5.17;2.27;;;;;;;;;;5092976;28;20811;-71
2022/07/01 01:06:04;;;;;;;4.87;2.30;;;;;;;;;;5092750;28;20490;-71
2022/07/01 01:08:32;;;;;;;3.70;2.60;;;;;;;;;;5092865;28;20455;-71
2022/07/01 01:10:59;;;;;;;10.30;2.70;;;;;;;;;;5092865;28;20466;-71
2022/07/01 01:13:26;;;;;;;3.70;2.30;;;;;;;;;;5092879;28;20936;-71
2022/07/01 01:15:53;;;;;;;4.57;2.27;;;;;;;;;;5093152;28;20456;-71
2022/07/01 01:18:20;;;;;;;5.50;2.33;;;;;;;;;;5093031;28;20454;-71
2022/07/01 01:20:49;;;;;;;4.67;2.70;;;;;;;;;;5093085;28;20550;-71
2022/07/01 01:23:16;;;;;;;4.73;3.10;;;;;;;;;;5092896;28;20457;-71
2022/07/01 01:25:43;;;;;;;3.60;2.53;;;;;;;;;;5092556;28;20497;-71
2022/07/01 01:28:10;;;;;;;5.63;3.40;;;;;;;;;;5092994;28;20450;-71
2022/07/01 01:30:37;;;;;;;3.50;2.80;;;;;;;;;;5092740;28;20450;-71
2022/07/01 01:33:07;;;;;;;5.30;3.07;;;;;;;;;;5092682;28;20461;-71
2022/07/01 01:35:35;;;;;;;6.90;2.60;;;;;;;;;;5092469;28;20959;-71
2022/07/01 01:38:03;;;;;;;8.30;4.07;;;;;;;;;;5092741;28;20446;-71
2022/07/01 01:40:30;;;;;;;5.50;2.80;;;;;;;;;;5092484;28;20451;-71
2022/07/01 01:42:57;;;;;;;5.40;3.80;;;;;;;;;;5093842;28;20455;-71
2022/07/01 01:45:24;;;;;;;5.20;4.10;;;;;;;;;;5096194;28;20890;-71
2022/07/01 01:47:52;;;;;;;6.33;3.40;;;;;;;;;;5096329;28;20461;-71
2022/07/01 01:50:19;;;;;;;5.53;3.77;;;;;;;;;;5096364;28;20443;-71
2022/07/01 01:52:46;;;;;;;3.90;3.60;;;;;;;;;;5096019;28;20848;-71
2022/07/01 01:55:15;;;;;;;6.93;3.80;;;;;;;;;;5096209;28;20443;-71
2022/07/01 01:57:42;;;;;;;8.40;4.40;;;;;;;;;;5096356;28;20451;-71
2022/07/01 02:00:10;;;;;;;4.33;3.53;;;;;;;;;;5096195;28;20447;-71
2022/07/01 02:02:37;;;;;;;6.13;4.40;;;;;;;;;;5096175;28;20485;-71
2022/07/01 02:05:05;;;;;;;4.77;4.37;;;;;;;;;;5095794;28;20482;-71
2022/07/01 02:07:32;;;;;;;5.80;4.30;;;;;;;;;;5096074;28;20927;-71
2022/07/01 02:09:59;;;;;;;5.83;4.57;;;;;;;;;;5095886;28;20462;-71
2022/07/01 02:12:27;;;;;;;6.67;4.90;;;;;;;;;;5095701;28;20843;-71
2022/07/01 02:14:54;;;;;;;8.27;4.83;;;;;;;;;;5095985;28;20458;-71
2022/07/01 02:17:22;;;;;;;5.20;4.70;;;;;;;;;;5095821;28;20450;-71
2022/07/01 02:19:49;;;;;;;7.90;5.00;;;;;;;;;;5095782;28;20453;-71
2022/07/01 02:22:16;;;;;;;7.23;4.80;;;;;;;;;;5095537;28;20471;-71
2022/07/01 02:24:44;;;;;;;8.17;4.83;;;;;;;;;;5095476;28;20490;-71
2022/07/01 02:27:12;;;;;;;12.30;6.10;;;;;;;;;;5095485;28;20513;-71
2022/07/01 02:29:41;;;;;;;6.23;4.77;;;;;;;;;;5095814;28;20450;-71
2022/07/01 02:32:09;;;;;;;5.80;4.63;;;;;;;;;;5095290;28;20478;-71
2022/07/01 02:34:36;;;;;;;6.70;6.10;;;;;;;;;;5095444;28;20446;-71
2022/07/01 02:37:03;;;;;;;7.50;4.77;;;;;;;;;;5095463;28;20453;-71
2022/07/01 02:39:30;;;;;;;11.83;4.60;;;;;;;;;;5095361;28;20462;-71
2022/07/01 02:44:43;;;;;;;6.50;5.50;;;;;;;;;;5095396;28;20430;-71
2022/07/01 02:47:11;;;;;;;5.70;5.03;;;;;;;;;;5095034;28;20489;-71
2022/07/01 02:49:39;;;;;;;8.80;6.60;;;;;;;;;;5095217;28;20947;-71
2022/07/01 02:52:06;;;;;;;7.40;5.40;;;;;;;;;;5094976;28;20463;-71
2022/07/01 02:54:33;;;;;;;7.20;6.40;;;;;;;;;;5093831;28;20449;-71
2022/07/01 02:57:01;;;;;;;7.73;5.33;;;;;;;;;;5095031;28;20454;-71
2022/07/01 02:59:28;;;;;;;7.73;5.70;;;;;;;;;;5095040;28;20557;-71
2022/07/01 03:01:57;;;;;;;10.27;5.20;;;;;;;;;;5094963;28;20520;-71
2022/07/01 03:04:24;;;;;;;5.13;4.50;;;;;;;;;;5094551;28;20447;-71
2022/07/01 03:06:51;;;;;;;3.93;3.60;;;;;;;;;;5094884;28;20493;-71
2022/07/01 03:09:18;;;;;;;4.33;3.80;;;;;;;;;;5095034;28;20447;-71
2022/07/01 03:11:45;;;;;;;4.60;3.90;;;;;;;;;;5094687;28;20474;-71
2022/07/01 03:14:12;;;;;;;5.50;3.20;;;;;;;;;;5094628;28;20460;-71
2022/07/01 03:16:39;;;;;;;3.97;3.57;;;;;;;;;;5094706;28;20443;-71
2022/07/01 03:19:09;;;;;;;8.60;3.00;;;;;;;;;;5094514;28;20499;-71
2022/07/01 03:21:36;;;;;;;3.83;2.90;;;;;;;;;;5094710;28;20886;-71
2022/07/01 03:24:03;;;;;;;5.07;2.80;;;;;;;;;;5094330;28;20466;-71
2022/07/01 03:26:30;;;;;;;5.20;2.73;;;;;;;;;;5094382;28;20482;-71
2022/07/01 03:28:57;;;;;;;3.37;3.00;;;;;;;;;;5094425;28;20450;-71
2022/07/01 03:31:24;;;;;;;4.77;2.90;;;;;;;;;;5094152;28;20486;-71
2022/07/01 03:33:51;;;;;;;4.77;3.17;;;;;;;;;;5094511;28;20820;-71
2022/07/01 03:36:20;;;;;;;3.10;2.50;;;;;;;;;;5094345;28;20541;-71
2022/07/01 03:38:47;;;;;;;3.47;3.17;;;;;;;;;;5094358;28;20450;-71
2022/07/01 03:41:14;;;;;;;4.07;3.47;;;;;;;;;;5094176;28;20504;-71
2022/07/01 03:43:41;;;;;;;8.03;3.07;;;;;;;;;;5094108;28;20955;-71
2022/07/01 03:46:08;;;;;;;3.43;2.60;;;;;;;;;;5093879;28;20482;-71
2022/07/01 03:48:35;;;;;;;4.00;2.97;;;;;;;;;;5094035;28;20994;-71
2022/07/01 03:51:02;;;;;;;6.10;2.97;;;;;;;;;;5094065;28;20479;-71
2022/07/01 03:56:16;;;;;;;3.53;2.90;;;;;;;;;;5093982;28;20456;-71
2022/07/01 03:58:43;;;;;;;5.93;2.90;;;;;;;;;;5093967;28;20443;-71
2022/07/01 04:01:10;;;;;;;3.60;2.83;;;;;;;;;;5093641;28;20471;-71
2022/07/01 04:03:37;;;;;;;3.43;2.70;;;;;;;;;;5093887;28;20947;-71
2022/07/01 04:06:04;;;;;;;2.83;2.43;;;;;;;;;;5093199;28;20490;-71
2022/07/01 04:08:33;;;;;;;3.10;2.90;;;;;;;;;;5093704;28;20451;-71
2022/07/01 04:11:00;;;;;;;3.00;2.70;;;;;;;;;;5093572;28;20467;-71
2022/07/01 04:13:28;;;;;;;6.43;2.63;;;;;;;;;;5093767;28;20939;-71
2022/07/01 04:15:55;;;;;;;2.50;2.13;;;;;;;;;;5093813;28;20817;-71
2022/07/01 04:18:22;;;;;;;6.87;2.87;;;;;;;;;;5093429;28;20814;-71
2022/07/01 04:23:30;;;;;;;3.80;2.00;;;;;;;;;;5093132;28;20476;-71
2022/07/01 04:25:59;;;;;;;4.20;2.17;;;;;;;;;;5093542;28;21019;-71
2022/07/01 04:28:26;;;;;;;2.53;2.23;;;;;;;;;;5093300;28;20457;-71
2022/07/01 04:30:53;;;;;;;5.27;2.57;;;;;;;;;;5093184;28;20478;-71
2022/07/01 04:33:20;;;;;;;4.33;2.07;;;;;;;;;;5093346;28;20454;-71
2022/07/01 04:35:47;;;;;;;3.67;2.00;;;;;;;;;;5093294;28;20823;-71
2022/07/01 04:38:14;;;;;;;2.23;2.03;;;;;;;;;;5093419;28;20454;-71
2022/07/01 04:41:58;;;;;;;2.50;2.20;;;;;;;;;;5093074;28;20451;-71
2022/07/01 04:43:30;;;;;;;2.00;1.70;;;;;;;;;;5093022;28;20454;-71
2022/07/01 04:45:57;;;;;;;4.07;1.93;;;;;;;;;;5093304;28;20581;-71
2022/07/01 04:48:24;;;;;;;3.60;2.07;;;;;;;;;;5093014;28;20458;-71
2022/07/01 04:50:51;;;;;;;3.20;2.13;;;;;;;;;;5093119;28;20983;-70
2022/07/01 04:53:18;;;;;;;2.07;1.87;;;;;;;;;;5092454;28;20455;-70
2022/07/01 04:55:45;;;;;;;1.90;1.70;;;;;;;;;;5092947;28;20451;-70
2022/07/01 04:58:14;;;;;;;2.37;1.90;;;;;;;;;;5092927;28;20966;-70
2022/07/01 05:00:42;;;;;;;2.37;1.97;;;;;;;;;;5093151;28;20454;-70
2022/07/01 05:03:09;;;;;;;1.97;1.70;;;;;;;;;;5092924;28;20533;-70
2022/07/01 05:05:37;;;;;;;2.40;1.77;;;;;;;;;;5091532;28;20446;-71
2022/07/01 05:08:04;;;;;;;3.07;1.70;;;;;;;;;;5092696;28;20951;-71
2022/07/01 05:10:31;;;;;;;3.30;1.70;;;;;;;;;;5092826;28;20462;-72
2022/07/01 05:12:58;;;;;;;3.63;2.20;;;;;;;;;;5093313;28;20477;-71
2022/07/01 05:15:25;;;;;;;3.03;2.57;;;;;;;;;;5092598;28;20932;-71
2022/07/01 05:23:23;;;;;;;5.70;4.60;;;;;;;;;;5096711;28;20426;-71
2022/07/01 05:25:50;;;;;;;5.83;1.90;;;;;;;;;;5096611;28;20451;-71
2022/07/01 05:28:17;;;;;;;2.40;1.87;;;;;;;;;;5096869;28;20924;-71
2022/07/01 05:30:44;;;;;;;2.97;1.83;;;;;;;;;;5096723;28;20932;-71
2022/07/01 05:33:13;;;;;;;2.13;1.60;;;;;;;;;;5096992;28;20456;-71
2022/07/01 05:35:40;;;;;;;2.70;2.20;;;;;;;;;;5096582;28;20814;-71
2022/07/01 05:38:07;;;;;;;2.10;1.80;;;;;;;;;;5096898;28;20454;-71
2022/07/01 05:40:34;;;;;;;3.30;2.00;;;;;;;;;;5096781;28;20494;-71
2022/07/01 05:43:01;;;;;;;2.20;1.50;;;;;;;;;;5096413;28;20793;-71
2022/07/01 05:45:28;;;;;;;2.53;1.80;;;;;;;;;;5095998;28;20782;-71
2022/07/01 05:47:56;;;;;;;2.17;1.90;;;;;;;;;;5096282;28;20498;-71
2022/07/01 05:50:25;;;;;;;2.83;1.60;;;;;;;;;;5096417;28;20531;-71
2022/07/01 05:52:52;;;;;;;3.60;2.07;;;;;;;;;;5095959;28;20471;-71
2022/07/01 05:55:19;;;;;;;3.50;1.80;;;;;;;;;;5096114;28;20458;-71
2022/07/01 05:57:46;;;;;;;3.10;1.57;;;;;;;;;;5096373;28;20446;-71
2022/07/01 06:00:14;;;;;;;2.10;1.80;;;;;;;;;;5096268;28;20458;-71
2022/07/01 06:02:41;;;;;;;3.37;2.33;;;;;;;;;;5096026;28;20466;-71
2022/07/01 06:05:09;;;;;;;2.00;1.60;;;;;;;;;;5094500;28;20470;-71
2022/07/01 06:07:38;;;;;;;4.07;1.40;;;;;;;;;;5095975;28;20478;-71
2022/07/01 06:10:06;;;;;;;2.37;1.67;;;;;;;;;;5096000;28;20947;-71
2022/07/01 06:12:33;;;;;;;3.67;2.67;;;;;;;;;;5095660;28;20466;-71
2022/07/01 06:15:00;;;;;;;3.47;1.50;;;;;;;;;;5095925;28;20462;-71
2022/07/01 06:17:27;;;;;;;1.80;1.47;;;;;;;;;;5095709;28;20443;-71
2022/07/01 06:19:54;;;;;;;2.00;1.80;;;;;;;;;;5095924;28;20442;-71
2022/07/01 06:22:22;;;;;;;1.80;1.60;;;;;;;;;;5095571;28;20474;-72
2022/07/01 06:24:50;;;;;;;2.13;1.30;;;;;;;;;;5095447;28;20469;-71
2022/07/01 06:27:17;;;;;;;2.20;1.40;;;;;;;;;;5095439;28;20493;-71
2022/07/01 06:29:45;;;;;;;4.63;1.67;;;;;;;;;;5094805;28;20789;-71
2022/07/01 06:32:12;;;;;;;2.20;1.40;;;;;;;;;;5095597;28;20490;-71
2022/07/01 06:34:40;;;;;;;1.80;1.50;;;;;;;;;;5095614;28;20934;-71
2022/07/01 06:37:07;;;;;;;3.60;1.80;;;;;;;;;;5095383;28;20442;-71
2022/07/01 06:39:34;;;;;;;3.40;2.00;;;;;;;;;;5095462;28;20446;-71
2022/07/01 06:42:03;;;;;;;2.00;1.53;;;;;;;;;;5095393;28;20470;-71
2022/07/01 06:44:30;;;;;;;3.10;1.90;;;;;;;;;;5095284;28;20450;-71
2022/07/01 06:46:57;;;;;;;2.10;1.63;;;;;;;;;;5095115;28;20482;-71
2022/07/01 06:49:24;;;;;;;1.60;1.20;;;;;;;;;;5095534;28;20904;-71
2022/07/01 06:51:52;;;;;;;1.67;1.47;;;;;;;;;;5095047;28;20471;-71
2022/07/01 06:54:19;;;;;;;4.83;1.33;;;;;;;;;;5094653;28;20458;-71
2022/07/01 06:56:46;;;;;;;1.90;1.50;;;;;;;;;;5095519;28;20911;-71
2022/07/01 06:59:15;;;;;;;2.50;1.70;;;;;;;;;;5094854;28;20461;-71
2022/07/01 07:01:42;;;;;;;2.23;1.53;;;;;;;;;;5094960;28;20508;-71
2022/07/01 07:04:09;;;;;;;2.20;1.90;;;;;;;;;;5094855;28;20955;-71
2022/07/01 07:06:36;;;;;;;2.00;1.60;;;;;;;;;;5095104;28;20497;-71
2022/07/01 07:09:03;;;;;;;2.07;1.60;;;;;;;;;;5094741;28;20462;-71
2022/07/01 07:11:30;;;;;;;3.30;1.63;;;;;;;;;;5093661;28;20467;-71
2022/07/01 07:13:57;;;;;;;3.23;1.60;;;;;;;;;;5092669;28;20451;-71
2022/07/01 07:16:26;;;;;;;3.50;1.50;;;;;;;;;;5093217;28;20450;-71
2022/07/01 07:18:53;;;;;;;2.53;2.00;;;;;;;;;;5093174;28;20454;-71
2022/07/01 07:21:20;;;;;;;2.20;1.80;;;;;;;;;;5093411;28;20474;-71
2022/07/01 07:23:48;;;;;;;3.20;1.73;;;;;;;;;;5089557;28;20964;-71
2022/07/01 07:26:15;;;;;;;1.80;1.60;;;;;;;;;;5072747;28;20527;-71
2022/07/01 07:28:42;;;;;;;2.87;1.90;;;;;;;;;;5073198;28;20487;-71
2022/07/01 07:31:09;;;;;;;3.87;1.70;;;;;;;;;;5094556;28;20477;-71
2022/07/01 07:33:37;;;;;;;2.43;1.70;;;;;;;;;;5094386;28;20457;-71
2022/07/01 07:36:05;;;;;;;2.40;2.00;;;;;;;;;;5094123;28;20454;-71
2022/07/01 07:38:32;;;;;;;1.93;1.57;;;;;;;;;;5094596;28;20458;-71
2022/07/01 07:41:04;;;;;;;2.20;1.60;;;;;;;;;;5094111;28;20471;-71
2022/07/01 07:43:31;;;;;;;1.97;1.73;;;;;;;;;;5081387;28;20455;-71
2022/07/01 07:45:58;;;;;;;5.63;2.23;;;;;;;;;;5072366;28;20452;-71
2022/07/01 07:48:25;;;;;;;2.10;1.77;;;;;;;;;;5072392;28;20574;-71
2022/07/01 07:50:54;;;;;;;3.37;1.80;;;;;;;;;;5072773;28;20483;-71
2022/07/01 07:53:21;;;;;;;2.53;2.13;;;;;;;;;;5072248;28;20952;-71
2022/07/01 07:55:48;;;;;;;2.53;2.03;;;;;;;;;;5072276;28;20439;-71
2022/07/01 07:58:15;;;;;;;4.90;2.00;;;;;;;;;;5072234;28;20448;-71
2022/07/01 08:00:42;;;;;;;4.10;3.00;;;;;;;;;;5072164;28;20439;-71
2022/07/01 08:03:09;;;;;;;2.77;1.97;;;;;;;;;;5072417;28;20837;-71
2022/07/01 08:05:36;;;;;;;2.47;2.27;;;;;;;;;;5072600;28;20448;-71
2022/07/01 08:08:05;;;;;;;2.10;1.70;;;;;;;;;;5072380;28;20483;-71
2022/07/01 08:10:33;;;;;;;2.00;1.80;;;;;;;;;;5072069;28;20452;-71
2022/07/01 08:13:04;;;;;;;4.63;2.40;;;;;;;;;;5072742;28;20929;-71
2022/07/01 08:15:31;;;;;;;3.03;1.60;;;;;;;;;;5072309;28;20436;-71
2022/07/01 08:17:58;;;;;;;2.60;2.27;;;;;;;;;;5072217;28;20443;-71
2022/07/01 08:20:25;;;;;;;2.33;1.90;;;;;;;;;;5072320;28;20901;-71
2022/07/01 08:22:52;;;;;;;3.67;1.63;;;;;;;;;;5072195;28;20486;-71
2022/07/01 08:25:21;;;;;;;2.20;1.90;;;;;;;;;;5071766;28;20470;-71
2022/07/01 08:27:48;;;;;;;2.10;1.90;;;;;;;;;;5071696;28;20491;-71
2022/07/01 08:30:15;;;;;;;2.37;2.13;;;;;;;;;;5071875;28;20959;-71
2022/07/01 08:32:42;;;;;;;6.10;2.20;;;;;;;;;;5072209;28;20475;-71
2022/07/01 08:35:09;;;;;;;2.47;1.93;;;;;;;;;;5071670;28;20458;-71
2022/07/01 08:37:37;;;;;;;2.30;2.00;;;;;;;;;;5072055;28;20947;-71
2022/07/01 08:40:04;;;;;;;3.50;2.37;;;;;;;;;;5072112;28;20459;-71
2022/07/01 08:42:32;;;;;;;2.63;1.83;;;;;;;;;;5071867;28;20483;-71
2022/07/01 08:45:00;;;;;;;4.00;2.20;;;;;;;;;;5071707;28;20456;-71
2022/07/01 08:47:27;;;;;;;4.43;2.10;;;;;;;;;;5071677;28;20504;-71
2022/07/01 08:49:54;;;;;;;5.83;2.87;;;;;;;;;;5071946;28;21035;-71
2022/07/01 08:52:21;;;;;;;3.40;3.10;;;;;;;;;;5070852;28;20475;-71
2022/07/01 08:54:48;;;;;;;2.93;2.47;;;;;;;;;;5071365;28;20450;-71
2022/07/01 08:57:16;;;;;;;4.50;2.07;;;;;;;;;;5071526;28;20964;-71
2022/07/01 08:59:44;;;;;;;2.10;1.80;;;;;;;;;;5071963;28;20981;-71
2022/07/01 09:02:11;;;;;;;2.10;1.83;;;;;;;;;;5071168;28;20468;-71
2022/07/01 09:04:38;;;;;;;2.40;1.80;;;;;;;;;;5071478;28;20454;-71
2022/07/01 09:07:07;;;;;;;2.07;1.87;;;;;;;;;;5071434;28;20462;-71
2022/07/01 09:09:36;;;;;;;2.43;1.90;;;;;;;;;;5071863;28;20958;-71
2022/07/01 09:12:03;;;;;;;2.20;1.83;;;;;;;;;;5071707;28;20475;-71
2022/07/01 09:14:31;;;;;;;2.60;2.07;;;;;;;;;;5071365;28;20452;-71
2022/07/01 09:17:00;;;;;;;2.07;1.67;;;;;;;;;;5071275;28;20451;-71
2022/07/01 09:19:28;;;;;;;3.10;2.37;;;;;;;;;;5071743;28;20551;-71
2022/07/01 09:21:57;;;;;;;4.93;2.00;;;;;;;;;;5071254;28;20993;-71
2022/07/01 09:24:28;;;;;;;4.33;2.00;;;;;;;;;;5071418;28;20965;-71
2022/07/01 09:26:56;;;;;;;2.20;2.00;;;;;;;;;;5071401;28;20457;-71
2022/07/01 09:29:27;;;;;;;2.77;1.80;;;;;;;;;;5071436;28;20494;-71
2022/07/01 09:31:54;;;;;;;2.53;2.00;;;;;;;;;;5071417;28;20477;-71
2022/07/01 09:34:22;;;;;;;3.37;2.50;;;;;;;;;;5070956;28;20458;-71
2022/07/01 09:36:53;;;;;;;4.30;2.13;;;;;;;;;;5071483;28;20474;-71
2022/07/01 09:39:20;;;;;;;2.17;1.80;;;;;;;;;;5071166;28;20440;-71
2022/07/01 09:41:47;;;;;;;4.73;2.63;;;;;;;;;;5071104;28;21008;-71
2022/07/01 09:44:15;;;;;;;2.27;2.07;;;;;;;;;;5070924;28;20452;-71
2022/07/01 09:46:52;;;;;;;2.13;1.90;;;;;;;;;;5071157;28;20454;-71
2022/07/01 09:49:20;;;;;;;3.30;2.43;;;;;;;;;;5070970;28;20488;-71
2022/07/01 09:51:50;;;;;;;1.93;1.73;;;;;;;;;;5071046;28;20467;-71
2022/07/01 09:54:17;;;;;;;4.73;2.17;;;;;;;;;;5070676;28;20554;-71
2022/07/01 09:56:45;;;;;;;2.57;1.90;;;;;;;;;;5071132;28;20869;-71
2022/07/01 09:59:12;;;;;;;2.07;1.87;;;;;;;;;;5071175;28;20533;-71
2022/07/01 10:01:40;;;;;;;2.20;2.00;;;;;;;;;;5070558;28;20476;-71
2022/07/01 10:04:09;;;;;;;2.10;1.90;;;;;;;;;;5070831;28;20447;-71
2022/07/01 10:06:44;;;;;;;2.30;1.90;;;;;;;;;;5073764;28;20512;-71
2022/07/01 10:09:23;;;;;;;2.77;2.13;;;;;;;;;;5074628;28;20964;-71
2022/07/01 10:12:01;;;;;;;2.13;1.93;;;;;;;;;;5074172;28;20482;-71
2022/07/01 10:14:29;;;;;;;3.83;2.20;;;;;;;;;;5074265;28;20824;-71
2022/07/01 10:16:56;;;;;;;2.00;1.80;;;;;;;;;;5075052;28;20951;-71
2022/07/01 10:19:27;;;;;;;4.30;1.87;;;;;;;;;;5075794;28;20885;-71
2022/07/01 10:21:56;;;;;;;2.10;1.90;;;;;;;;;;5075227;28;20853;-71
2022/07/01 10:24:25;;;;;;;3.30;1.80;;;;;;;;;;5075142;28;20881;-71
2022/07/01 10:26:53;;;;;;;2.13;1.70;;;;;;;;;;5075535;28;20833;-71
2022/07/01 10:29:29;;;;;;;2.93;1.77;;;;;;;;;;5075432;28;20562;-71
2022/07/01 10:32:01;;;;;;;1.80;1.53;;;;;;;;;;5075590;28;20964;-71
2022/07/01 10:34:35;;;;;;;3.30;1.80;;;;;;;;;;5075452;28;20451;-71
2022/07/01 10:37:02;;;;;;;5.43;2.40;;;;;;;;;;5075599;28;20497;-71
2022/07/01 10:39:31;;;;;;;2.33;2.07;;;;;;;;;;5075392;28;20448;-71
2022/07/01 10:41:59;;;;;;;2.93;1.70;;;;;;;;;;5075442;28;20859;-71
2022/07/01 10:44:27;;;;;;;9.93;2.10;;;;;;;;;;5075158;28;20991;-71
2022/07/01 10:46:57;;;;;;;1.77;1.67;;;;;;;;;;5075386;28;20463;-71
2022/07/01 10:49:39;;;;;;;2.20;1.70;;;;;;;;;;5074933;28;20483;-71
2022/07/01 10:52:07;;;;;;;2.30;1.90;;;;;;;;;;5074766;28;20472;-71
2022/07/01 10:54:53;;;;;;;2.00;1.80;;;;;;;;;;5074792;28;20455;-71
2022/07/01 10:57:22;;;;;;;12.70;2.20;;;;;;;;;;5075185;28;20438;-71
2022/07/01 10:59:50;;;;;;;2.20;2.00;;;;;;;;;;5074915;28;20443;-71
2022/07/01 11:02:18;;;;;;;8.30;6.90;;;;;;;;;;5074646;28;20463;-71
2022/07/01 11:04:46;;;;;;;2.20;2.00;;;;;;;;;;5074617;28;20455;-71
2022/07/01 11:07:13;;;;;;;3.20;1.90;;;;;;;;;;5075141;28;20439;-71
2022/07/01 11:09:40;;;;;;;2.80;2.60;;;;;;;;;;5074582;28;20490;-71
2022/07/01 11:12:09;;;;;;;5.20;3.70;;;;;;;;;;5074551;28;20827;-71
2022/07/01 11:14:36;;;;;;;5.07;4.63;;;;;;;;;;5074828;28;20456;-71
2022/07/01 11:17:04;;;;;;;10.10;3.97;;;;;;;;;;5074045;28;20448;-71
2022/07/01 11:19:31;;;;;;;3.73;3.37;;;;;;;;;;5074804;28;20458;-71
2022/07/01 11:21:59;;;;;;;3.50;3.20;;;;;;;;;;5074327;28;20471;-71
2022/07/01 11:24:26;;;;;;;3.00;2.80;;;;;;;;;;5074186;28;20475;-71
2022/07/01 11:26:56;;;;;;;3.27;2.97;;;;;;;;;;5074323;28;20967;-71
2022/07/01 11:29:27;;;;;;;2.87;2.67;;;;;;;;;;5074308;28;20483;-71
2022/07/01 11:31:54;;;;;;;2.40;2.20;;;;;;;;;;5074376;28;20476;-71
2022/07/01 11:34:22;;;;;;;2.17;1.97;;;;;;;;;;5074589;28;20474;-71
2022/07/01 11:39:35;;;;;;;1.70;1.57;;;;;;;;;;5074165;28;20427;-71
2022/07/01 11:42:04;;;;;;;3.77;2.17;;;;;;;;;;5073859;28;20472;-71
2022/07/01 11:44:37;;;;;;;2.00;1.73;;;;;;;;;;5074083;28;20451;-71
2022/07/01 11:47:04;;;;;;;2.33;2.00;;;;;;;;;;5073894;28;20444;-71
2022/07/01 11:49:32;;;;;;;2.60;2.40;;;;;;;;;;5073997;28;20988;-71
2022/07/01 11:52:00;;;;;;;3.27;2.97;;;;;;;;;;5073779;28;20475;-71
2022/07/01 11:54:27;;;;;;;2.83;2.63;;;;;;;;;;5073460;28;20462;-72
2022/07/01 11:56:55;;;;;;;3.57;3.27;;;;;;;;;;5073685;28;20455;-71
2022/07/01 11:59:22;;;;;;;5.83;3.20;;;;;;;;;;5073918;28;20458;-71
2022/07/01 12:01:54;;;;;;;3.60;3.30;;;;;;;;;;5073638;28;20471;-71
2022/07/01 12:04:21;;;;;;;4.50;4.10;;;;;;;;;;5073678;28;20451;-72
2022/07/01 12:06:49;;;;;;;4.43;4.03;;;;;;;;;;5073524;28;20509;-71
2022/07/01 12:09:17;;;;;;;4.70;4.30;;;;;;;;;;5073456;28;20571;-71
2022/07/01 12:11:46;;;;;;;5.60;4.20;;;;;;;;;;5073808;28;20478;-71
2022/07/01 12:14:20;;;;;;;5.10;4.60;;;;;;;;;;5073506;28;20456;-71
2022/07/01 12:16:47;;;;;;;5.20;4.60;;;;;;;;;;5073750;28;20833;-71
2022/07/01 12:19:15;;;;;;;5.80;5.27;;;;;;;;;;5073677;28;20447;-71
2022/07/01 12:21:50;;;;;;;4.30;3.60;;;;;;;;;;5073597;28;20478;-71
2022/07/01 12:24:18;;;;;;;4.77;4.30;;;;;;;;;;5072569;28;20851;-72
2022/07/01 12:26:49;;;;;;;5.70;3.97;;;;;;;;;;5072360;28;20547;-73
2022/07/01 12:29:17;;;;;;;4.67;4.10;;;;;;;;;;5072670;28;20494;-73
2022/07/01 12:31:45;;;;;;;5.40;4.87;;;;;;;;;;5073353;28;20467;-73
2022/07/01 12:34:12;;;;;;;5.40;4.70;;;;;;;;;;5073017;28;20464;-73
2022/07/01 12:36:48;;;;;;;5.60;3.90;;;;;;;;;;5073333;28;20448;-73
2022/07/01 12:39:15;;;;;;;5.00;4.60;;;;;;;;;;5073275;28;20447;-72
2022/07/01 12:41:50;;;;;;;6.80;4.20;;;;;;;;;;5073237;28;20463;-73
2022/07/01 12:44:23;;;;;;;4.87;4.17;;;;;;;;;;5072829;28;20454;-73
2022/07/01 12:46:50;;;;;;;4.33;3.30;;;;;;;;;;5073485;28;20921;-73
2022/07/01 12:49:22;;;;;;;4.40;3.63;;;;;;;;;;5073057;28;20494;-73
2022/07/01 12:51:51;;;;;;;3.90;3.53;;;;;;;;;;5072864;28;20478;-73
2022/07/01 12:54:31;;;;;;;4.10;3.20;;;;;;;;;;5072689;28;20833;-72
2022/07/01 12:56:58;;;;;;;3.50;3.10;;;;;;;;;;5072948;28;20454;-73
2022/07/01 12:59:26;;;;;;;3.20;2.73;;;;;;;;;;5072895;28;20543;-73
2022/07/01 13:01:53;;;;;;;3.83;2.20;;;;;;;;;;5072957;28;20846;-73
2022/07/01 13:04:25;;;;;;;2.60;2.40;;;;;;;;;;5072612;28;20452;-73
2022/07/01 13:06:53;;;;;;;3.57;2.87;;;;;;;;;;5072963;28;20459;-72
2022/07/01 13:09:21;;;;;;;3.33;2.90;;;;;;;;;;5072739;28;20850;-72
2022/07/01 13:11:48;;;;;;;3.00;2.70;;;;;;;;;;5072714;28;20944;-72
2022/07/01 13:14:15;;;;;;;2.67;2.33;;;;;;;;;;5072609;28;20459;-72
2022/07/01 13:16:42;;;;;;;3.50;3.07;;;;;;;;;;5072752;28;20458;-72
2022/07/01 13:19:09;;;;;;;3.00;2.70;;;;;;;;;;5072628;28;20817;-72
2022/07/01 13:21:37;;;;;;;2.20;2.00;;;;;;;;;;5072594;28;20471;-72
2022/07/01 13:24:06;;;;;;;3.17;2.70;;;;;;;;;;5072532;28;20460;-72
2022/07/01 13:26:33;;;;;;;11.70;5.17;;;;;;;;;;5072742;28;20444;-72
2022/07/01 13:29:00;;;;;;;3.10;2.80;;;;;;;;;;5072391;28;20483;-72
2022/07/01 13:31:30;;;;;;;3.23;2.50;;;;;;;;;;5072465;28;20993;-72
2022/07/01 13:33:57;;;;;;;6.30;3.43;;;;;;;;;;5072296;28;20447;-72
2022/07/01 13:36:24;;;;;;;5.37;2.70;;;;;;;;;;5072301;28;20454;-72
2022/07/01 13:38:51;;;;;;;2.60;1.87;;;;;;;;;;5073485;28;20454;-72
2022/07/01 13:41:21;;;;;;;4.10;2.70;;;;;;;;;;5076029;28;20471;-72
2022/07/01 13:43:48;;;;;;;3.90;2.57;;;;;;;;;;5075933;28;20945;-72
2022/07/01 13:46:15;;;;;;;2.87;2.43;;;;;;;;;;5076219;28;20444;-72
2022/07/01 13:48:42;;;;;;;2.87;2.57;;;;;;;;;;5076054;28;20494;-72
2022/07/01 13:51:10;;;;;;;3.30;3.00;;;;;;;;;;5076085;28;20499;-73
2022/07/01 13:53:37;;;;;;;9.63;2.70;;;;;;;;;;5075694;28;20462;-73
2022/07/01 13:56:04;;;;;;;6.63;2.83;;;;;;;;;;5075935;28;20933;-73
2022/07/01 13:58:32;;;;;;;3.07;2.30;;;;;;;;;;5076007;28;20956;-73
2022/07/01 14:01:00;;;;;;;4.70;2.83;;;;;;;;;;5075551;28;20484;-73
2022/07/01 14:03:27;;;;;;;4.60;2.20;;;;;;;;;;5075660;28;20523;-73
2022/07/01 14:05:54;;;;;;;7.67;3.97;;;;;;;;;;5075644;28;20452;-72
2022/07/01 14:08:21;;;;;;;6.70;3.40;;;;;;;;;;5075557;28;20451;-72
2022/07/01 14:10:48;;;;;;;4.27;2.50;;;;;;;;;;5075542;28;20495;-72
2022/07/01 14:13:16;;;;;;;3.43;2.57;;;;;;;;;;5075468;28;20814;-72
2022/07/01 14:15:45;;;;;;;3.23;2.90;;;;;;;;;;5074963;28;20478;-72
2022/07/01 14:18:12;;;;;;;4.27;3.23;;;;;;;;;;5075415;28;20451;-72
2022/07/01 14:20:39;;;;;;;2.97;2.37;;;;;;;;;;5075322;28;20447;-72
2022/07/01 14:23:06;;;;;;;3.03;2.57;;;;;;;;;;5075370;28;20456;-72
2022/07/01 14:25:33;;;;;;;2.80;2.37;;;;;;;;;;5075174;28;20463;-71
2022/07/01 14:28:00;;;;;;;4.93;2.60;;;;;;;;;;5075309;28;20452;-71
2022/07/01 14:30:27;;;;;;;3.50;2.70;;;;;;;;;;5075078;28;20483;-71
2022/07/01 14:32:56;;;;;;;3.00;2.37;;;;;;;;;;5075439;28;21004;-71
2022/07/01 14:35:23;;;;;;;4.00;2.40;;;;;;;;;;5075035;28;20458;-71
2022/07/01 14:37:50;;;;;;;4.17;2.23;;;;;;;;;;5075143;28;20451;-71
2022/07/01 14:40:18;;;;;;;4.80;3.10;;;;;;;;;;5075200;28;20444;-71
2022/07/01 14:42:45;;;;;;;7.00;2.87;;;;;;;;;;5075048;28;20476;-71
2022/07/01 14:45:13;;;;;;;5.20;3.37;;;;;;;;;;5074667;28;20460;-71
2022/07/01 14:47:41;;;;;;;5.97;2.73;;;;;;;;;;5074951;28;20895;-71
2022/07/01 14:50:10;;;;;;;4.07;2.60;;;;;;;;;;5073948;28;20566;-71
2022/07/01 14:52:37;;;;;;;4.73;1.93;;;;;;;;;;5074578;28;20559;-72
2022/07/01 14:55:05;;;;;;;4.73;2.57;;;;;;;;;;5074861;28;20941;-71
2022/07/01 14:57:32;;;;;;;2.47;2.20;;;;;;;;;;5074666;28;20455;-71
2022/07/01 14:59:59;;;;;;;4.03;2.60;;;;;;;;;;5074805;28;20454;-71
2022/07/01 15:02:26;;;;;;;2.63;2.33;;;;;;;;;;5074636;28;20997;-71
2022/07/01 15:04:53;;;;;;;3.27;2.87;;;;;;;;;;5074433;28;20448;-72